Latest Coastal Weather Observations for Gabo Island

IDV60701

Issued at 3:55 pm EDT Friday 31 October 2014 (issued every 10 minutes, with the page automatically refreshed every 10 minutes)

About coastal observations | Map of coastal stations | Coastal observations for VIC | Marine services | Other Formats
Station Details ID: 084016 Name: GABO ISLAND LIGHTHOUSE Lat: -37.57 Lon: 149.92 Height: 15.2 m
Data from the previous 72 hours. | See also: Recent months at Gabo Island
Date/Time
EDT
Temp

°C
Wind Pressure Rain
since 9am
mm
Weather Cloud Vis
km
Sea
Height
m
Swell
Dir
 
Speed
knots
Gust
knots
hPa Trend Height
m
Period
s
Dir
31/03:30pm 19.0 NE 18 20 1005.9 - 0.0 - - - - - - -
31/03:00pm 18.8 NE 19 21 1006.4 - 0.0 Haze Mostly cloudy 10 <0.5 1.0 10 SE
31/02:30pm 19.3 NE 19 22 1006.7 - 0.0 - - - - - - -
31/02:00pm 19.9 NE 19 22 1007.1 - 0.0 - - - - - - -
31/01:30pm 19.8 NE 19 22 1007.3 - 0.0 - - - - - - -
31/01:00pm 19.5 NE 22 25 1007.4 - 0.0 - - - - - - -
31/12:30pm 19.8 NNE 22 25 1008.1 - 0.0 - - - - - - -
31/12:00pm 20.2 NNE 20 23 1008.5 - 0.0 - - - - - - -
31/11:30am 19.9 NNE 24 27 1009.0 - 0.0 - - - - - - -
31/11:00am 19.9 NNE 22 26 1009.5 - 0.0 - - - - - - -
31/10:30am 20.1 NNE 19 22 1010.0 - 0.0 - - - - - - -
31/10:00am 19.5 NNE 19 22 1010.4 - 0.0 - - - - - - -
31/09:30am 19.0 NNE 18 22 1010.8 - 0.0 - - - - - - -
31/09:00am 18.4 NNE 20 25 1011.1 - 0.0 Fine Mostly cloudy 25 1 1.5 10 S
31/08:30am 18.0 NNE 18 22 1011.3 - 0.0 - - - - - - -
31/08:00am 17.1 NNE 14 21 1011.5 - 0.0 - - - - - - -
31/07:30am 15.8 NNE 11 13 1011.6 - 0.0 - - - - - - -
31/07:00am 14.3 NNE 9 11 1011.9 - 0.0 - - - - - - -
31/06:30am 13.5 N 7 9 1012.1 - 0.0 - - - - - - -
31/06:00am 13.7 NNE 8 11 1011.9 - 0.0 - - - - - - -
31/05:30am 13.6 NNE 7 9 1012.0 - 0.0 - - - - - - -
31/05:00am 12.7 NNE 6 7 1012.3 - 0.0 - - - - - - -
31/04:30am 13.0 N 4 5 1012.4 - 0.0 - - - - - - -
31/04:00am 14.5 NNE 5 6 1012.9 - 0.0 - - - - - - -
31/03:30am 14.6 NNE 6 7 1013.1 - 0.0 - - - - - - -
31/03:00am 14.3 NNE 6 8 1013.3 - 0.0 Fine Cloudy 35 <0.5 0.5 12 S
31/02:30am 13.9 N 4 6 1013.5 - 0.0 - - - - - - -
31/02:00am 14.2 N 4 5 1013.7 - 0.0 - - - - - - -
31/01:30am 13.8 N 4 5 1014.0 - 0.0 - - - - - - -
31/01:00am 14.2 NW 3 4 1014.3 - 0.0 - - - - - - -
31/12:30am 14.3 NNW 3 4 1014.5 - 0.0 - - - - - - -
31/12:00am 14.6 W 4 5 1014.6 - 0.0 - - - - - - -
 
Date/Time
EDT
Temp

°C
Wind Pressure Rain
since 9am
mm
Weather Cloud Vis
km
Sea
Height
m
Swell
Dir
 
Speed
knots
Gust
knots
hPa Trend Height
m
Period
s
Dir
30/11:30pm 14.8 WSW 6 7 1014.9 - 0.0 - - - - - - -
30/11:00pm 14.7 WSW 6 8 1014.8 - 0.0 - - - - - - -
30/10:30pm 14.6 WSW 7 9 1015.1 - 0.0 - - - - - - -
30/10:00pm 15.0 SW 10 13 1015.3 - 0.0 - - - - - - -
30/09:30pm 15.4 SW 11 13 1015.2 - 0.0 - - - - - - -
30/09:00pm 15.4 SW 12 14 1014.8 - 0.0 Fine Mostly clear 35 1 0.5 12 S
30/08:30pm 15.4 SW 12 13 1014.7 - 0.0 - - - - - - -
30/08:00pm 15.6 SW 13 15 1014.6 - 0.0 - - - - - - -
30/07:30pm 15.7 SW 15 17 1014.3 - 0.0 - - - - - - -
30/07:00pm 16.1 SW 14 16 1014.0 - 0.0 - - - - - - -
30/06:30pm 16.3 SW 10 12 1013.6 - 0.0 - - - - - - -
30/06:00pm 16.4 SSW 13 15 1013.2 - 0.0 - - - - - - -
30/05:30pm 16.9 SSW 10 12 1013.1 - 0.0 - - - - - - -
30/05:00pm 17.7 SSW 7 10 1012.8 - 0.0 - - - - - - -
30/04:30pm 17.8 SSW 11 14 1012.5 - 0.0 - - - - - - -
30/04:00pm 17.5 SSW 13 15 1012.3 - 0.0 - - - - - - -
30/03:30pm 18.3 S 13 14 1012.7 - 0.0 - - - - - - -
30/03:00pm 18.2 S 10 11 1012.7 - 0.0 Fine Mostly clear 30 1 0.5 12 S
30/02:30pm 18.6 S 11 13 1012.9 - 0.0 - - - - - - -
30/02:00pm 18.5 S 11 13 1012.8 - 0.0 - - - - - - -
30/01:30pm 18.5 S 10 11 1012.8 - 0.0 - - - - - - -
30/01:00pm 18.2 S 11 13 1013.1 - 0.0 - - - - - - -
30/12:30pm 18.6 S 10 12 1013.4 - 0.0 - - - - - - -
30/12:00pm 17.8 S 8 9 1013.7 - 0.0 - - - - - - -
30/11:30am 17.5 S 5 6 1013.8 - 0.0 - - - - - - -
30/11:00am 17.3 SSW 7 10 1014.2 - 0.0 - - - - - - -
30/10:30am 16.6 SSW 7 8 1014.1 - 0.0 - - - - - - -
30/10:00am 16.4 SW 7 8 1014.3 - 0.0 - - - - - - -
30/09:30am 15.9 WSW 6 7 1014.0 - 0.0 - - - - - - -
30/09:00am 15.4 W 6 8 1014.2 - 0.0 Fine Partly cloudy 20 <0.5 1.5 12 S
30/08:30am 14.4 W 7 8 1014.6 - 0.0 - - - - - - -
30/08:00am 13.9 WNW 8 9 1014.5 - 0.0 - - - - - - -
30/07:30am 13.0 WNW 6 7 1014.5 - 0.0 - - - - - - -
30/07:00am 13.3 W 7 8 1014.4 - 0.0 - - - - - - -
30/06:30am 13.5 W 5 8 1014.1 - 0.0 - - - - - - -
30/06:00am 12.6 N 4 5 1013.9 - 0.0 - - - - - - -
30/05:30am 12.6 N 4 5 1013.8 - 0.0 - - - - - - -
30/05:00am 13.5 NNE 6 7 1013.8 - 0.0 - - - - - - -
30/04:30am 12.8 N 5 6 1013.7 - 0.0 - - - - - - -
30/04:00am 12.8 N 6 7 1014.0 - 0.0 - - - - - - -
30/03:30am 13.6 N 5 5 1014.2 - 0.0 - - - - - - -
30/03:00am 13.6 N 5 5 1014.5 - 0.0 Fine Partly cloudy 35 <0.5 1.5 12 S
30/02:30am 13.9 WNW 4 5 1014.9 - 0.0 - - - - - - -
30/02:00am 13.8 WNW 4 5 1015.2 - 0.0 - - - - - - -
30/01:30am 14.0 WNW 5 6 1015.8 - 0.0 - - - - - - -
30/01:00am 14.0 WNW 5 5 1015.9 - 0.0 - - - - - - -
30/12:30am 14.1 W 4 5 1016.3 - 0.0 - - - - - - -
30/12:00am 14.3 W 5 6 1016.5 - 0.0 - - - - - - -
 
Date/Time
EDT
Temp

°C
Wind Pressure Rain
since 9am
mm
Weather Cloud Vis
km
Sea
Height
m
Swell
Dir
 
Speed
knots
Gust
knots
hPa Trend Height
m
Period
s
Dir
29/11:30pm 14.2 W 4 5 1016.7 - 0.0 - - - - - - -
29/11:00pm 14.2 W 4 4 1016.8 - 0.0 - - - - - - -
29/10:30pm 14.1 W 4 5 1017.0 - 0.0 - - - - - - -
29/10:00pm 14.1 WNW 5 5 1017.2 - 0.0 - - - - - - -
29/09:30pm 14.1 WSW 4 5 1017.3 - 0.0 - - - - - - -
29/09:00pm 13.8 WSW 4 4 1016.9 - 0.0 Fine Cloudy 35 1 1.5 12 S
29/08:30pm 13.9 SSW 4 5 1016.6 - 0.0 - - - - - - -
29/08:00pm 14.5 SW 5 6 1016.4 - 0.0 - - - - - - -
29/07:30pm 14.6 SSW 4 5 1016.1 - 0.0 - - - - - - -
29/07:00pm 15.3 SSW 6 7 1015.8 - 0.0 - - - - - - -
29/06:30pm 15.7 S 6 7 1015.5 - 0.0 - - - - - - -
29/06:00pm 16.0 SSW 8 10 1015.3 - 0.0 - - - - - - -
29/05:30pm 16.3 S 10 11 1015.3 - 0.0 - - - - - - -
29/05:00pm 16.5 SSW 11 13 1015.2 - 0.0 - - - - - - -
29/04:30pm 15.9 SSW 15 19 1015.0 - 0.0 - - - - - - -
29/04:00pm 16.2 SSW 19 23 1014.8 - 0.0 - - - - - - -
29/03:30pm 16.1 SSW 21 24 1014.9 - 0.0 - - - - - - -
29/03:00pm 15.8 SSW 22 25 1015.1 - 0.0 Fine Mostly clear 40 1 2.0 11 S
29/02:30pm 15.6 SSW 22 27 1015.3 - 0.0 - - - - - - -
29/02:00pm 15.3 SSW 24 28 1015.7 - 0.0 - - - - - - -
29/01:30pm 15.1 SW 25 29 1016.0 - 0.0 - - - - - - -
29/01:00pm 15.4 SW 25 28 1016.3 - 0.0 - - - - - - -
29/12:30pm 15.4 SW 25 29 1016.6 - 0.0 - - - - - - -
29/12:00pm 15.3 SW 25 30 1016.9 - 0.0 - - - - - - -
29/11:30am 15.6 SW 24 30 1017.1 - 0.0 - - - - - - -
29/11:00am 16.1 SW 22 28 1017.3 - 0.0 - - - - - - -
29/10:30am 15.7 SW 22 27 1017.4 - 0.0 - - - - - - -
29/10:00am 15.9 WSW 21 26 1017.4 - 0.0 - - - - - - -
29/09:30am 15.6 WSW 20 26 1017.1 - 0.0 - - - - - - -
29/09:00am 15.0 W 20 26 1017.0 - 0.0 Fine Partly cloudy 20 1 2.0 9 S
29/08:30am 14.5 WSW 21 27 1017.0 - 0.0 - - - - - - -
29/08:00am 13.9 W 21 27 1016.8 - 0.0 - - - - - - -
29/07:30am 13.2 W 21 25 1016.2 - 0.0 - - - - - - -
29/07:00am 12.9 W 17 21 1015.9 - 0.0 - - - - - - -
29/06:30am 13.2 WSW 20 28 1015.6 - 0.0 - - - - - - -
29/06:11am 12.8 W 19 29 1015.4 - 0.0 - - - - - - -
29/06:00am 13.3 WSW 24 31 1015.2 - 0.0 - - - - - - -
29/05:30am 13.2 WSW 26 33 1014.7 - 0.0 - - - - - - -
29/05:00am 13.4 WSW 23 28 1014.4 - 0.0 - - - - - - -
29/04:30am 13.4 WSW 24 30 1013.9 - 0.0 - - - - - - -
29/04:00am 13.5 WSW 25 34 1013.6 - 0.0 - - - - - - -
29/03:55am 13.4 WSW 24 34 1013.5 - 0.0 - - - - - - -
29/03:30am 13.6 WSW 24 32 1013.8 - 0.0 - - - - - - -
29/03:00am 13.6 WSW 23 30 1013.8 - 0.0 Fine Partly cloudy 15 2 3.5 8 S
29/02:30am 13.8 WSW 27 35 1013.6 - 0.0 - - - - - - -
29/02:04am 13.8 WSW 25 35 1013.6 - 0.0 - - - - - - -
29/02:00am 13.6 WSW 26 35 1013.6 - 0.0 - - - - - - -
29/01:38am 13.7 WSW 27 37 1013.5 - 0.0 - - - - - - -
29/01:30am 14.0 WSW 28 35 1013.5 - 0.0 - - - - - - -
29/01:00am 14.2 WSW 29 37 1013.7 - 0.0 - - - - - - -
29/12:30am 14.2 WSW 31 40 1013.5 - 0.0 - - - - - - -
29/12:16am 14.3 WSW 32 42 1013.5 - 0.0 - - - - - - -
29/12:00am 14.5 WSW 28 36 1013.3 - 0.0 - - - - - - -
 
Date/Time
EDT
Temp

°C
Wind Pressure Rain
since 9am
mm
Weather Cloud Vis
km
Sea
Height
m
Swell
Dir
 
Speed
knots
Gust
knots
hPa Trend Height
m
Period
s
Dir
28/11:39pm 14.5 WSW 27 37 1013.1 - 0.0 - - - - - - -
28/11:30pm 14.5 WSW 29 37 1013.1 - 0.0 - - - - - - -
28/11:00pm 14.4 WSW 26 33 1012.9 - 0.0 - - - - - - -
28/10:36pm 14.7 WSW 29 39 1012.6 - 0.0 - - - - - - -
28/10:30pm 14.8 WSW 31 39 1012.3 - 0.0 - - - - - - -
28/10:11pm 14.6 WSW 26 37 1012.1 - 0.0 - - - - - - -
28/10:00pm 14.6 WSW 26 34 1012.1 - 0.0 - - - - - - -
28/09:30pm 14.5 WSW 24 34 1012.1 - 0.0 - - - - - - -
28/09:05pm 14.8 WSW 28 38 1011.5 - 0.0 - - - - - - -
28/09:00pm 14.8 WSW 29 38 1011.4 - 0.0 Fine Mostly clear 15 2 3.5 8 S
28/08:48pm 14.9 WSW 30 40 1011.2 - 0.0 - - - - - - -
28/08:30pm 14.8 SW 31 39 1010.6 - 0.0 - - - - - - -
28/08:07pm 14.9 SW 32 42 1010.2 - 0.0 - - - - - - -
28/08:00pm 15.0 SW 34 42 1009.9 - 0.0 - - - - - - -
28/07:30pm 15.6 SW 33 39 1009.2 - 0.0 - - - - - - -
28/07:00pm 16.6 WSW 27 36 1008.6 - 0.0 - - - - - - -
28/06:42pm 16.7 WSW 26 38 1008.3 - 0.0 - - - - - - -
28/06:30pm 16.8 WSW 26 34 1008.1 - 0.0 - - - - - - -
28/06:00pm 16.2 SW 32 38 1007.6 - 0.0 - - - - - - -
28/05:30pm 16.7 SW 30 37 1007.5 - 0.0 - - - - - - -
28/05:12pm 16.2 SW 37 47 1007.0 - 0.0 - - - - - - -
28/05:00pm 16.1 SW 36 44 1006.9 - 0.0 - - - - - - -
28/04:30pm 17.2 SW 32 38 1006.6 - 0.0 - - - - - - -
28/04:00pm 17.1 SW 36 45 1006.2 - 0.0 - - - - - - -

Other Formats:

Comma delimited format used in spreadsheet applications
http://www.bom.gov.au/fwo/IDV60701/IDV60701.94933.axf

JavaScript Object Notation format (JSON) in row-major order
http://www.bom.gov.au/fwo/IDV60701/IDV60701.94933.json